Time;durP1;ratioP1;P1;durP2;ratioP2;P2;SDS_P1;SDS_P2;PMS_P1;PMS_P2;Temp;Humidity;BMP_temperature;BMP_pressure;BME280_temperature;BME280_humidity;BME280_pressure;Samples;Min_cycle;Max_cycle;Signal;HPM_P1;HPM_P2
2021/05/26 00:01:23;;;;;;;9.38;5.45;;;12.40;98.00;;;;;;4992405;28;20046;-74
2021/05/26 00:03:50;;;;;;;6.75;4.93;;;12.40;98.00;;;;;;4992551;28;20042;-75
2021/05/26 00:06:15;;;;;;;7.65;5.32;;;12.40;98.10;;;;;;4992586;28;20019;-75
2021/05/26 00:08:41;;;;;;;5.95;5.10;;;12.30;98.10;;;;;;4976572;28;20125;-76
2021/05/26 00:11:12;;;;;;;7.50;4.90;;;12.30;98.30;;;;;;4974359;28;20125;-76
2021/05/26 00:13:38;;;;;;;9.32;5.18;;;12.20;98.40;;;;;;4992016;28;20046;-76
2021/05/26 00:16:05;;;;;;;8.30;4.40;;;12.20;98.40;;;;;;4992327;28;20464;-76
2021/05/26 00:18:32;;;;;;;7.25;4.75;;;12.20;98.30;;;;;;4992458;28;20365;-75
2021/05/26 00:20:59;;;;;;;6.80;4.45;;;12.30;98.50;;;;;;4993762;28;20073;-75
2021/05/26 00:23:25;;;;;;;8.35;4.20;;;12.30;98.40;;;;;;4974927;28;20038;-75
2021/05/26 00:25:52;;;;;;;6.43;4.65;;;12.20;98.20;;;;;;4974562;28;20113;-76
2021/05/26 00:28:18;;;;;;;6.45;4.38;;;12.20;98.30;;;;;;4991980;28;20037;-75
2021/05/26 00:30:52;;;;;;;7.32;4.53;;;12.20;98.20;;;;;;4992293;28;20053;-75
2021/05/26 00:33:19;;;;;;;6.95;4.60;;;12.20;98.40;;;;;;4992174;28;20033;-76
2021/05/26 00:35:45;;;;;;;7.22;4.40;;;12.20;98.30;;;;;;4993404;28;20031;-74
2021/05/26 00:38:11;;;;;;;7.03;4.40;;;12.20;98.00;;;;;;4992016;28;20060;-76
2021/05/26 00:40:38;;;;;;;6.20;4.57;;;12.10;98.00;;;;;;4990798;28;20026;-76
2021/05/26 00:43:04;;;;;;;3.83;3.50;;;12.20;97.90;;;;;;4991530;28;20526;-76
2021/05/26 00:45:30;;;;;;;4.38;3.92;;;12.20;97.70;;;;;;4991802;28;20043;-75
2021/05/26 00:47:56;;;;;;;9.88;4.50;;;12.10;97.60;;;;;;4993425;28;20037;-76
2021/05/26 00:50:30;;;;;;;7.22;3.75;;;12.10;97.70;;;;;;4991851;28;20038;-76
2021/05/26 00:53:00;;;;;;;6.75;3.70;;;12.10;97.60;;;;;;4991669;28;20030;-76
2021/05/26 00:55:26;;;;;;;5.28;3.78;;;12.10;97.60;;;;;;4991506;28;20038;-74
2021/05/26 00:57:52;;;;;;;6.35;3.92;;;12.10;97.50;;;;;;4991518;28;20112;-75
2021/05/26 01:00:21;;;;;;;6.95;4.38;;;12.10;97.40;;;;;;4991125;28;20516;-76
2021/05/26 01:02:50;;;;;;;5.95;3.10;;;12.10;97.40;;;;;;4993277;28;20444;-75
2021/05/26 01:05:16;;;;;;;4.20;3.35;;;12.20;97.50;;;;;;4991365;28;20403;-75
2021/05/26 01:07:42;;;;;;;4.13;3.70;;;12.20;97.30;;;;;;4991347;28;20043;-74
2021/05/26 01:10:11;;;;;;;6.10;3.60;;;12.20;97.40;;;;;;4990857;28;20041;-75
2021/05/26 01:12:37;;;;;;;6.53;3.75;;;12.20;97.20;;;;;;4991090;28;20046;-75
2021/05/26 01:15:06;;;;;;;7.63;3.83;;;12.20;97.40;;;;;;4993000;28;20030;-76
2021/05/26 01:17:34;;;;;;;6.47;3.65;;;12.10;97.60;;;;;;4991822;28;20101;-75
2021/05/26 01:19:59;;;;;;;4.80;3.28;;;12.10;97.70;;;;;;4990376;28;20377;-75
2021/05/26 01:22:25;;;;;;;6.60;3.90;;;12.10;97.50;;;;;;4990017;28;20435;-74
2021/05/26 01:24:51;;;;;;;5.45;3.47;;;12.10;97.60;;;;;;4991186;28;20440;-73
2021/05/26 01:27:16;;;;;;;7.35;3.70;;;12.10;97.50;;;;;;4990910;28;20064;-74
2021/05/26 01:29:42;;;;;;;7.40;4.15;;;12.20;97.40;;;;;;4975257;28;20027;-75
2021/05/26 01:32:07;;;;;;;6.78;3.60;;;12.20;97.40;;;;;;4990915;28;20053;-75
2021/05/26 01:34:33;;;;;;;9.05;3.58;;;12.20;97.40;;;;;;4990745;28;20038;-75
2021/05/26 01:37:00;;;;;;;7.13;3.35;;;12.30;97.50;;;;;;5008152;28;20088;-75
2021/05/26 01:39:28;;;;;;;5.07;3.47;;;12.20;97.40;;;;;;5010199;28;20128;-74
2021/05/26 01:41:55;;;;;;;7.28;3.63;;;12.20;97.50;;;;;;5011892;28;20045;-74
2021/05/26 01:44:26;;;;;;;5.90;3.60;;;12.20;97.50;;;;;;5010482;28;20558;-73
2021/05/26 01:46:52;;;;;;;7.90;3.72;;;12.20;97.60;;;;;;5010083;28;20064;-74
2021/05/26 01:49:18;;;;;;;3.72;3.35;;;12.20;97.40;;;;;;5010266;28;20038;-74
2021/05/26 01:51:44;;;;;;;6.35;3.50;;;12.10;97.50;;;;;;5010275;28;20038;-74
2021/05/26 01:54:10;;;;;;;6.65;3.40;;;12.20;97.60;;;;;;5010119;28;20018;-74
2021/05/26 01:56:36;;;;;;;4.82;3.45;;;12.10;97.50;;;;;;4994477;28;20026;-75
2021/05/26 01:59:02;;;;;;;7.57;3.90;;;12.20;97.80;;;;;;5009752;28;20404;-73
2021/05/26 02:01:28;;;;;;;6.03;4.00;;;12.20;97.40;;;;;;5009553;28;20046;-73
2021/05/26 02:03:54;;;;;;;6.13;3.83;;;12.30;97.40;;;;;;4992682;28;20124;-74
2021/05/26 02:06:21;;;;;;;6.70;3.97;;;12.20;97.60;;;;;;5009940;28;20452;-73
2021/05/26 02:08:50;;;;;;;4.70;3.75;;;12.20;97.60;;;;;;5011358;28;20462;-74
2021/05/26 02:14:05;;;;;;;8.43;3.70;;;12.20;97.60;;;;;;5009497;28;20041;-74
2021/05/26 02:16:31;;;;;;;5.60;3.78;;;12.20;97.50;;;;;;5009562;28;20467;-72
2021/05/26 02:18:57;;;;;;;5.53;3.65;;;12.20;97.50;;;;;;4992244;28;20065;-75
2021/05/26 02:21:22;;;;;;;5.47;3.70;;;12.10;97.50;;;;;;5009715;28;20037;-74
2021/05/26 02:23:49;;;;;;;5.90;3.90;;;12.10;97.40;;;;;;4994016;28;20033;-74
2021/05/26 02:26:15;;;;;;;6.75;4.22;;;12.10;97.50;;;;;;5009578;28;20045;-74
2021/05/26 02:28:41;;;;;;;7.75;4.85;;;12.10;97.50;;;;;;5009706;28;20375;-74
2021/05/26 02:31:07;;;;;;;7.50;4.35;;;12.10;97.60;;;;;;5009216;28;20454;-74
2021/05/26 02:33:34;;;;;;;5.45;3.85;;;12.10;97.60;;;;;;5014092;28;20042;-76
2021/05/26 02:36:00;;;;;;;6.25;4.78;;;12.10;97.60;;;;;;5017791;28;20337;-75
2021/05/26 02:38:26;;;;;;;8.18;4.00;;;12.00;97.60;;;;;;5016095;28;20038;-76
2021/05/26 02:40:51;;;;;;;5.35;4.20;;;12.00;98.00;;;;;;4998732;28;20038;-75
2021/05/26 02:43:17;;;;;;;6.97;4.43;;;12.10;97.60;;;;;;5016154;28;20044;-75
2021/05/26 02:45:43;;;;;;;7.55;4.15;;;12.10;97.50;;;;;;5016082;28;20044;-76
2021/05/26 02:48:08;;;;;;;12.85;4.20;;;12.10;97.40;;;;;;5016266;28;20080;-74
2021/05/26 02:50:34;;;;;;;7.70;4.65;;;12.10;97.40;;;;;;5000360;28;20069;-75
2021/05/26 02:53:00;;;;;;;8.88;5.35;;;12.10;97.40;;;;;;4998529;28;20038;-76
2021/05/26 02:55:26;;;;;;;8.55;5.47;;;12.10;97.40;;;;;;5016047;28;20034;-76
2021/05/26 02:57:52;;;;;;;10.02;5.40;;;12.10;97.50;;;;;;5015999;28;20076;-76
2021/05/26 03:00:20;;;;;;;10.00;5.95;;;12.20;97.40;;;;;;5015887;28;20053;-76
2021/05/26 03:02:46;;;;;;;6.93;5.43;;;12.20;97.50;;;;;;5000277;28;20513;-76
2021/05/26 03:05:15;;;;;;;8.13;6.35;;;12.20;97.50;;;;;;5016057;28;20038;-75
2021/05/26 03:07:41;;;;;;;7.70;6.78;;;12.20;97.60;;;;;;5015547;28;20125;-75
2021/05/26 03:10:09;;;;;;;8.95;6.88;;;12.20;97.90;;;;;;4998253;28;20045;-77
2021/05/26 03:12:35;;;;;;;10.90;6.32;;;12.20;98.10;;;;;;4998294;28;20026;-76
2021/05/26 03:15:03;;;;;;;16.80;7.15;;;12.20;98.10;;;;;;5000162;28;20026;-76
2021/05/26 03:17:29;;;;;;;7.45;5.82;;;12.20;98.40;;;;;;5015269;28;20037;-76
2021/05/26 03:19:55;;;;;;;8.82;6.25;;;12.10;98.60;;;;;;5015642;28;20050;-76
2021/05/26 03:22:22;;;;;;;9.02;5.07;;;12.00;98.70;;;;;;4998111;28;20128;-77
2021/05/26 03:24:48;;;;;;;7.45;5.07;;;12.00;98.70;;;;;;5016051;28;20037;-76
2021/05/26 03:27:13;;;;;;;5.75;4.32;;;12.00;98.90;;;;;;5015758;28;20364;-76
2021/05/26 03:29:39;;;;;;;5.95;3.42;;;12.00;98.70;;;;;;5017112;28;20548;-77
2021/05/26 03:32:05;;;;;;;5.20;3.92;;;11.90;98.50;;;;;;4998281;28;20046;-76
2021/05/26 03:34:31;;;;;;;5.57;3.20;;;11.80;99.00;;;;;;5015653;28;20095;-75
2021/05/26 03:36:56;;;;;;;5.10;2.60;;;11.80;98.90;;;;;;5015641;28;20129;-77
2021/05/26 03:39:22;;;;;;;3.67;2.72;;;11.50;98.90;;;;;;5015418;28;20026;-76
2021/05/26 03:41:48;;;;;;;3.63;2.40;;;11.50;99.20;;;;;;5017414;28;20356;-76
2021/05/26 03:44:13;;;;;;;3.50;2.83;;;11.50;99.50;;;;;;5013724;28;20042;-76
2021/05/26 03:46:39;;;;;;;5.43;3.15;;;11.50;99.40;;;;;;5012433;28;20042;-77
2021/05/26 03:49:05;;;;;;;3.28;2.70;;;11.60;99.20;;;;;;5012233;28;20110;-77
2021/05/26 03:51:32;;;;;;;10.48;3.80;;;11.60;99.00;;;;;;5012327;28;20464;-75
2021/05/26 03:53:57;;;;;;;6.80;3.90;;;11.50;98.90;;;;;;5013897;28;20088;-76
2021/05/26 03:56:23;;;;;;;6.28;4.07;;;11.60;99.20;;;;;;5012511;28;20049;-75
2021/05/26 03:58:49;;;;;;;8.60;4.60;;;11.60;99.30;;;;;;5011862;28;20046;-75
2021/05/26 04:01:14;;;;;;;8.65;5.63;;;11.70;99.20;;;;;;5012195;28;20440;-75
2021/05/26 04:03:40;;;;;;;12.13;5.00;;;11.70;99.30;;;;;;5012216;28;20111;-76
2021/05/26 04:06:05;;;;;;;13.10;6.15;;;11.60;99.00;;;;;;5011527;28;20068;-76
2021/05/26 04:08:32;;;;;;;11.32;6.25;;;11.70;99.40;;;;;;5013528;28;20033;-74
2021/05/26 04:10:57;;;;;;;13.90;5.35;;;11.70;99.40;;;;;;5011609;28;20703;-75
2021/05/26 04:13:23;;;;;;;12.80;6.20;;;11.70;99.40;;;;;;4994547;28;20124;-76
2021/05/26 04:15:48;;;;;;;11.15;6.10;;;11.70;99.30;;;;;;4994479;28;20367;-77
2021/05/26 04:18:14;;;;;;;14.65;6.55;;;11.70;99.50;;;;;;4994107;28;20113;-77
2021/05/26 04:20:40;;;;;;;15.25;7.15;;;11.80;99.50;;;;;;5013315;28;20123;-76
2021/05/26 04:23:06;;;;;;;14.48;7.60;;;11.80;99.70;;;;;;5011531;28;20065;-76
2021/05/26 04:25:32;;;;;;;13.15;7.32;;;11.80;99.40;;;;;;5011557;28;20041;-76
2021/05/26 04:27:58;;;;;;;12.18;7.63;;;11.80;99.40;;;;;;5011898;28;20647;-76
2021/05/26 04:30:24;;;;;;;13.77;7.43;;;11.80;99.50;;;;;;5011704;28;20092;-75
2021/05/26 04:32:49;;;;;;;15.43;7.70;;;11.80;99.40;;;;;;5013131;28;20034;-75
2021/05/26 04:35:15;;;;;;;10.10;6.70;;;11.90;99.50;;;;;;5011580;28;20061;-76
2021/05/26 04:37:41;;;;;;;17.80;7.25;;;11.90;99.30;;;;;;5011303;28;20046;-77
2021/05/26 04:40:07;;;;;;;12.90;7.72;;;11.70;99.50;;;;;;5011333;28;20112;-77
2021/05/26 04:42:33;;;;;;;17.25;7.63;;;11.80;99.60;;;;;;5011345;28;20030;-76
2021/05/26 04:44:59;;;;;;;13.90;7.70;;;11.80;99.50;;;;;;5012981;28;20045;-79
2021/05/26 04:47:24;;;;;;;16.80;7.93;;;11.80;99.60;;;;;;5011836;28;20050;-76
2021/05/26 04:49:50;;;;;;;15.75;8.18;;;11.80;99.60;;;;;;5011163;28;20104;-75
2021/05/26 04:52:15;;;;;;;15.38;8.10;;;11.80;99.50;;;;;;5011168;28;20045;-77
2021/05/26 04:54:41;;;;;;;18.27;9.07;;;11.90;99.50;;;;;;5011275;28;20057;-77
2021/05/26 04:57:07;;;;;;;14.30;7.57;;;11.90;99.40;;;;;;4992089;28;20033;-77
2021/05/26 04:59:33;;;;;;;19.55;8.20;;;11.90;99.30;;;;;;5012515;28;20112;-77
2021/05/26 05:01:58;;;;;;;16.08;7.78;;;11.90;99.20;;;;;;5010583;28;20436;-76
2021/05/26 05:04:24;;;;;;;19.23;9.23;;;11.90;99.10;;;;;;4993186;28;20038;-76
2021/05/26 05:06:49;;;;;;;17.08;8.75;;;11.90;99.20;;;;;;5011945;28;20452;-78
2021/05/26 05:09:15;;;;;;;17.42;8.70;;;12.00;99.10;;;;;;5010909;28;20365;-75
2021/05/26 05:11:41;;;;;;;21.05;8.63;;;12.00;99.10;;;;;;4994984;28;20037;-76
2021/05/26 05:14:06;;;;;;;16.35;7.32;;;12.00;99.10;;;;;;4993208;28;20061;-76
2021/05/26 05:16:33;;;;;;;18.92;8.30;;;12.10;98.90;;;;;;5010984;28;20034;-75
2021/05/26 05:18:59;;;;;;;17.13;7.82;;;12.20;99.00;;;;;;5007482;28;20045;-75
2021/05/26 05:21:25;;;;;;;17.67;8.40;;;12.10;99.00;;;;;;5010843;28;20111;-76
2021/05/26 05:23:51;;;;;;;22.17;8.95;;;12.20;99.00;;;;;;4986498;28;20046;-76
2021/05/26 05:26:17;;;;;;;15.50;8.27;;;12.20;98.90;;;;;;4972099;28;20498;-78
2021/05/26 05:28:43;;;;;;;13.63;7.93;;;12.30;98.80;;;;;;4972048;28;20031;-78
2021/05/26 05:31:09;;;;;;;19.33;8.40;;;12.40;98.80;;;;;;4971983;28;20362;-77
2021/05/26 05:33:35;;;;;;;14.30;7.93;;;12.50;98.70;;;;;;4971929;28;20045;-77
2021/05/26 05:36:01;;;;;;;20.80;8.05;;;12.50;98.70;;;;;;4972630;28;20787;-76
2021/05/26 05:38:27;;;;;;;13.30;7.20;;;12.50;98.40;;;;;;4954844;28;20479;-78
2021/05/26 05:40:52;;;;;;;20.75;6.30;;;12.50;98.20;;;;;;4972161;28;20113;-76
2021/05/26 05:43:18;;;;;;;15.32;6.70;;;12.40;98.50;;;;;;4971428;28;20027;-77
2021/05/26 05:45:44;;;;;;;15.25;5.90;;;12.40;98.40;;;;;;4971934;28;20035;-77
2021/05/26 05:48:09;;;;;;;16.58;6.10;;;12.40;98.20;;;;;;4973705;28;20092;-84
2021/05/26 05:50:36;;;;;;;11.38;5.50;;;12.60;98.40;;;;;;4975697;28;20086;-84
2021/05/26 05:53:04;;;;;;;10.43;4.43;;;12.60;98.20;;;;;;4972961;28;20041;-81
2021/05/26 05:55:30;;;;;;;17.67;5.30;;;12.60;98.00;;;;;;4955290;28;20043;-78
2021/05/26 05:58:01;;;;;;;13.07;4.82;;;12.80;98.00;;;;;;4969921;28;20046;-77
2021/05/26 06:00:27;;;;;;;11.45;4.43;;;12.70;97.80;;;;;;4971267;28;20495;-75
2021/05/26 06:02:52;;;;;;;11.90;5.05;;;12.70;97.60;;;;;;4972927;28;20110;-78
2021/05/26 06:05:18;;;;;;;12.20;4.57;;;12.70;97.50;;;;;;4971463;28;20117;-79
2021/05/26 06:07:44;;;;;;;15.82;6.40;;;12.70;97.70;;;;;;4970825;28;20038;-76
2021/05/26 06:10:10;;;;;;;14.20;5.22;;;12.80;97.90;;;;;;4971364;28;20098;-77
2021/05/26 06:12:36;;;;;;;11.25;4.40;;;12.90;97.60;;;;;;4953782;28;20038;-77
2021/05/26 06:15:03;;;;;;;13.50;4.82;;;13.00;97.40;;;;;;4973285;28;20364;-77
2021/05/26 06:17:29;;;;;;;11.83;5.10;;;13.10;97.20;;;;;;4971719;28;20126;-78
2021/05/26 06:19:55;;;;;;;19.65;5.95;;;13.10;97.20;;;;;;4971708;28;20126;-77
2021/05/26 06:22:20;;;;;;;9.70;4.70;;;13.10;97.30;;;;;;4971444;28;20031;-77
2021/05/26 06:24:46;;;;;;;14.65;5.10;;;13.20;97.10;;;;;;4970258;28;20121;-77
2021/05/26 06:27:12;;;;;;;17.50;5.38;;;13.10;96.70;;;;;;4971400;28;20042;-81
2021/05/26 06:29:37;;;;;;;11.70;4.97;;;13.10;96.90;;;;;;4973695;28;20453;-79
2021/05/26 06:32:03;;;;;;;14.63;5.25;;;13.20;97.00;;;;;;4972064;28;20049;-80
2021/05/26 06:34:29;;;;;;;11.82;4.93;;;13.20;96.70;;;;;;4970910;28;20031;-80
2021/05/26 06:36:54;;;;;;;15.60;6.07;;;13.10;96.40;;;;;;4972151;28;20033;-80
2021/05/26 06:39:20;;;;;;;13.02;5.28;;;13.20;96.70;;;;;;4975420;28;20061;-80
2021/05/26 06:41:46;;;;;;;17.75;5.10;;;13.10;96.40;;;;;;4994275;28;20053;-83
2021/05/26 06:44:12;;;;;;;10.93;5.13;;;13.10;96.40;;;;;;4975659;28;20038;-84
2021/05/26 06:46:41;;;;;;;16.60;5.68;;;13.10;96.20;;;;;;4992213;28;20097;-81
2021/05/26 06:49:08;;;;;;;11.07;5.05;;;13.20;96.50;;;;;;4991784;28;20312;-81
2021/05/26 06:51:34;;;;;;;13.95;5.70;;;13.40;96.30;;;;;;4975048;28;20104;-78
2021/05/26 06:54:00;;;;;;;16.65;5.65;;;13.40;96.20;;;;;;4976527;28;20452;-84
2021/05/26 06:56:26;;;;;;;16.25;5.90;;;13.50;96.10;;;;;;4992497;28;20159;-80
2021/05/26 06:58:53;;;;;;;20.20;7.13;;;13.40;95.90;;;;;;4991800;28;20124;-81
2021/05/26 07:01:18;;;;;;;17.38;5.82;;;13.40;96.10;;;;;;4990962;28;20030;-81
2021/05/26 07:03:44;;;;;;;18.30;7.55;;;13.40;96.10;;;;;;4991830;28;20046;-80
2021/05/26 07:06:09;;;;;;;12.70;5.72;;;13.40;96.00;;;;;;4991723;28;20037;-79
2021/05/26 07:08:35;;;;;;;12.27;5.88;;;13.50;95.90;;;;;;4993637;28;20348;-81
2021/05/26 07:11:01;;;;;;;14.02;5.47;;;13.50;95.80;;;;;;4991952;28;20073;-81
2021/05/26 07:13:27;;;;;;;17.08;5.72;;;13.50;95.40;;;;;;4992203;28;20042;-81
2021/05/26 07:15:53;;;;;;;16.45;5.78;;;13.70;95.40;;;;;;4992305;28;20027;-84
2021/05/26 07:18:18;;;;;;;15.45;5.95;;;13.80;95.20;;;;;;4992760;28;20554;-82
2021/05/26 07:20:47;;;;;;;17.25;6.32;;;13.90;95.30;;;;;;4997141;28;20054;-81
2021/05/26 07:23:12;;;;;;;14.40;5.93;;;13.90;94.90;;;;;;4995636;28;20101;-83
2021/05/26 07:25:39;;;;;;;15.88;6.55;;;14.10;95.00;;;;;;4995766;28;20054;-84
2021/05/26 07:28:06;;;;;;;15.73;6.25;;;14.10;94.70;;;;;;4998429;28;20030;-83
2021/05/26 07:30:32;;;;;;;15.70;6.70;;;14.10;94.80;;;;;;4977652;28;20456;-78
2021/05/26 07:32:57;;;;;;;15.32;6.90;;;14.20;94.80;;;;;;4996409;28;20026;-86
2021/05/26 07:35:23;;;;;;;16.65;7.30;;;14.30;94.80;;;;;;4996729;28;20046;-86
2021/05/26 07:37:49;;;;;;;17.20;6.78;;;14.50;94.70;;;;;;4996777;28;20030;-88
2021/05/26 07:40:15;;;;;;;17.80;7.88;;;14.60;94.50;;;;;;4978530;28;20105;-83
2021/05/26 07:42:41;;;;;;;18.33;6.85;;;14.60;94.20;;;;;;4996035;28;20338;-85
2021/05/26 07:45:07;;;;;;;19.58;8.00;;;14.70;94.10;;;;;;4996286;28;20136;-83
2021/05/26 07:47:34;;;;;;;15.95;7.30;;;14.60;93.90;;;;;;4997307;28;20029;-82
2021/05/26 07:50:00;;;;;;;14.40;7.07;;;14.40;93.80;;;;;;4977815;28;20030;-80
2021/05/26 07:52:28;;;;;;;17.50;7.40;;;14.50;93.50;;;;;;4977912;28;20057;-80
2021/05/26 07:54:53;;;;;;;17.52;7.82;;;14.40;93.70;;;;;;4977072;28;20488;-79
2021/05/26 07:57:19;;;;;;;22.52;7.28;;;14.20;93.90;;;;;;4976720;28;20034;-78
2021/05/26 07:59:46;;;;;;;30.73;8.02;;;14.30;93.70;;;;;;4996063;28;20030;-78
2021/05/26 08:02:12;;;;;;;15.57;6.90;;;14.30;93.50;;;;;;4994314;28;20434;-80
2021/05/26 08:04:39;;;;;;;15.07;7.30;;;14.20;93.60;;;;;;4994339;28;20550;-80
2021/05/26 08:07:04;;;;;;;30.40;8.93;;;14.30;93.50;;;;;;4993511;28;20120;-81
2021/05/26 08:09:30;;;;;;;17.85;6.70;;;14.40;93.40;;;;;;4993943;28;20113;-79
2021/05/26 08:11:55;;;;;;;16.38;6.85;;;14.30;93.20;;;;;;4995781;28;20031;-80
2021/05/26 08:14:22;;;;;;;11.60;6.68;;;14.30;93.00;;;;;;4994103;28;20038;-82
2021/05/26 08:16:50;;;;;;;18.30;6.97;;;14.20;93.00;;;;;;4994353;28;20037;-78
2021/05/26 08:19:15;;;;;;;14.73;5.75;;;14.20;93.20;;;;;;4993373;28;20049;-77
2021/05/26 08:21:41;;;;;;;14.82;6.28;;;14.10;93.20;;;;;;4994634;28;20038;-80
2021/05/26 08:24:08;;;;;;;15.32;6.10;;;14.20;93.50;;;;;;4977435;28;20033;-81
2021/05/26 08:26:35;;;;;;;10.93;6.05;;;14.20;93.30;;;;;;4995866;28;20027;-81
2021/05/26 08:29:03;;;;;;;14.43;5.97;;;14.20;93.30;;;;;;4993857;28;20031;-80
2021/05/26 08:31:29;;;;;;;16.30;5.70;;;14.20;93.30;;;;;;4976205;28;20049;-79
2021/05/26 08:33:55;;;;;;;11.95;6.13;;;14.20;93.00;;;;;;4994152;28;20026;-81
2021/05/26 08:36:20;;;;;;;12.48;6.40;;;14.40;93.20;;;;;;4976501;28;20019;-82
2021/05/26 08:38:46;;;;;;;13.13;5.15;;;14.30;92.80;;;;;;4978066;28;20037;-80
2021/05/26 08:41:12;;;;;;;10.23;5.68;;;14.50;92.80;;;;;;4993076;28;20042;-80
2021/05/26 08:43:40;;;;;;;15.32;5.22;;;14.50;92.60;;;;;;4993219;28;20383;-78
2021/05/26 08:46:07;;;;;;;13.00;5.50;;;14.40;92.60;;;;;;4993366;28;20042;-80
2021/05/26 08:48:33;;;;;;;13.77;5.88;;;14.30;92.70;;;;;;4993162;28;20069;-81
2021/05/26 08:51:01;;;;;;;12.40;5.20;;;14.30;92.40;;;;;;4995038;28;20126;-80
2021/05/26 08:53:28;;;;;;;15.70;5.70;;;14.50;92.60;;;;;;4993392;28;20085;-82
2021/05/26 08:55:55;;;;;;;17.88;5.90;;;14.60;92.30;;;;;;4976173;28;20251;-83
2021/05/26 08:58:21;;;;;;;13.95;6.25;;;14.70;92.30;;;;;;4975818;28;20460;-82
2021/05/26 09:00:47;;;;;;;12.77;6.03;;;14.90;92.20;;;;;;4993032;28;20492;-82
2021/05/26 09:03:14;;;;;;;19.25;6.10;;;14.90;91.70;;;;;;4992392;28;20023;-82
2021/05/26 09:05:50;;;;;;;15.75;5.75;;;15.00;91.60;;;;;;4994935;28;20044;-83
2021/05/26 09:08:15;;;;;;;12.23;4.97;;;15.00;91.20;;;;;;4992257;28;20034;-82
2021/05/26 09:10:54;;;;;;;11.32;5.50;;;15.00;91.20;;;;;;4993683;28;20030;-83
2021/05/26 09:13:35;;;;;;;12.65;5.97;;;15.10;91.10;;;;;;4992826;28;20065;-86
2021/05/26 09:16:02;;;;;;;11.55;5.43;;;15.30;91.00;;;;;;4993924;28;20026;-84
2021/05/26 09:18:28;;;;;;;13.13;5.60;;;15.50;91.00;;;;;;4993151;28;20034;-85
2021/05/26 09:20:56;;;;;;;14.40;5.80;;;15.50;91.00;;;;;;4977644;28;20057;-81
2021/05/26 09:23:30;;;;;;;12.70;5.70;;;15.40;90.40;;;;;;4992366;28;20115;-82
2021/05/26 09:25:58;;;;;;;11.98;5.00;;;15.40;90.60;;;;;;4993046;28;20412;-83
2021/05/26 09:28:25;;;;;;;;;;;15.30;90.60;;;;;;4993313;28;20678;-84
2021/05/26 09:31:04;;;;;;;15.43;5.78;;;15.40;90.50;;;;;;4993925;28;19971;-85
2021/05/26 09:33:33;;;;;;;16.27;5.90;;;15.40;90.70;;;;;;4992680;28;20039;-81
2021/05/26 09:36:18;;;;;;;10.93;4.93;;;15.40;90.50;;;;;;4977790;28;20026;-82
2021/05/26 09:38:59;;;;;;;12.10;5.63;;;15.60;91.10;;;;;;4995430;28;20568;-83
2021/05/26 09:41:27;;;;;;;12.95;5.53;;;15.60;90.50;;;;;;4993297;28;20038;-83
2021/05/26 09:43:54;;;;;;;;;;;15.70;90.50;;;;;;4993309;28;20042;-83
2021/05/26 09:46:22;;;;;;;11.05;4.68;;;15.70;90.60;;;;;;4992580;28;19914;-84
2021/05/26 09:49:07;;;;;;;8.65;4.68;;;15.80;90.40;;;;;;4994633;28;20065;-82
2021/05/26 09:51:41;;;;;;;13.85;4.65;;;15.80;90.00;;;;;;4974707;28;20034;-83
2021/05/26 09:54:07;;;;;;;9.27;3.85;;;16.00;89.10;;;;;;4991718;28;20030;-82
2021/05/26 09:56:33;;;;;;;57.47;7.25;;;16.10;87.20;;;;;;4993426;28;20018;-84
2021/05/26 09:59:01;;;;;;;11.23;3.78;;;16.30;86.20;;;;;;4992854;28;20497;-83
2021/05/26 10:01:27;;;;;;;15.98;4.20;;;16.30;86.30;;;;;;4992143;28;20474;-77
2021/05/26 10:03:53;;;;;;;7.45;3.88;;;16.40;85.80;;;;;;4991489;28;20459;-77
2021/05/26 10:06:19;;;;;;;11.07;4.00;;;16.60;85.80;;;;;;4991316;28;20031;-85
2021/05/26 10:08:46;;;;;;;7.95;3.80;;;16.50;85.10;;;;;;4994093;28;20351;-88
2021/05/26 10:11:14;;;;;;;8.57;3.57;;;16.40;85.50;;;;;;4991964;28;20488;-83
2021/05/26 10:13:45;;;;;;;6.45;3.28;;;16.40;84.80;;;;;;4974094;28;20034;-89
2021/05/26 10:16:20;;;;;;;6.78;2.95;;;16.40;85.20;;;;;;4993610;28;20034;-90
2021/05/26 10:18:46;;;;;;;9.07;2.88;;;16.50;83.80;;;;;;4967616;28;20496;-91
2021/05/26 10:21:20;;;;;;;12.48;3.55;;;16.50;82.40;;;;;;4954673;28;20081;-81
2021/05/26 10:23:46;;;;;;;8.02;2.70;;;16.60;83.00;;;;;;4973888;28;20019;-83
2021/05/26 10:26:12;;;;;;;28.02;4.82;;;16.80;82.90;;;;;;4972407;28;20049;-84
2021/05/26 10:28:38;;;;;;;12.73;2.90;;;17.00;82.70;;;;;;4954362;28;20050;-84
2021/05/26 10:31:06;;;;;;;11.32;3.03;;;17.00;81.30;;;;;;4972783;28;20212;-84
2021/05/26 10:33:44;;;;;;;7.25;2.13;;;17.00;81.20;;;;;;4971709;28;20114;-85
2021/05/26 10:36:11;;;;;;;7.47;2.85;;;17.20;82.00;;;;;;4955730;28;20034;-83
2021/05/26 10:38:57;;;;;;;8.10;2.83;;;16.90;82.20;;;;;;4956548;28;20030;-84
2021/05/26 10:41:23;;;;;;;5.97;2.35;;;17.00;82.10;;;;;;4954982;28;20373;-85
2021/05/26 10:43:56;;;;;;;10.63;2.30;;;17.00;81.00;;;;;;4972633;28;20126;-86
2021/05/26 10:46:36;;;;;;;7.15;2.58;;;16.80;80.80;;;;;;4972449;28;20377;-79
2021/05/26 10:49:10;;;;;;;10.88;2.65;;;16.80;81.30;;;;;;4957607;28;20352;-82
2021/05/26 10:51:57;;;;;;;6.57;2.72;;;16.90;81.20;;;;;;4953906;28;20066;-83
2021/05/26 10:54:41;;;;;;;7.78;2.17;;;17.00;81.20;;;;;;4974024;28;20019;-83
2021/05/26 10:57:07;;;;;;;11.73;4.97;;;16.80;80.90;;;;;;4975539;28;20034;-76
2021/05/26 10:59:33;;;;;;;12.40;3.17;;;16.70;81.50;;;;;;4959040;28;20023;-78
2021/05/26 11:02:02;;;;;;;5.85;2.67;;;16.80;81.80;;;;;;4974710;28;20031;-81
2021/05/26 11:04:28;;;;;;;3.13;2.10;;;16.80;81.20;;;;;;4957388;28;20393;-82
2021/05/26 11:07:17;;;;;;;7.82;3.03;;;17.00;80.50;;;;;;4974827;28;20043;-80
2021/05/26 11:10:05;;;;;;;10.65;2.35;;;17.20;79.30;;;;;;4957405;28;20031;-82
2021/05/26 11:12:59;;;;;;;5.07;2.10;;;17.30;78.20;;;;;;4958311;28;20510;-82
2021/05/26 11:15:45;;;;;;;7.00;2.40;;;17.50;77.10;;;;;;4974726;28;20133;-77
2021/05/26 11:18:16;;;;;;;9.38;2.28;;;17.60;75.80;;;;;;4974645;28;20109;-78
2021/05/26 11:20:42;;;;;;;7.03;2.25;;;17.80;77.00;;;;;;4960605;28;20112;-85
2021/05/26 11:23:14;;;;;;;6.75;1.80;;;17.90;76.20;;;;;;4981998;28;20035;-85
2021/05/26 11:25:53;;;;;;;10.02;3.90;;;18.00;74.70;;;;;;4963520;28;20073;-81
2021/05/26 11:28:32;;;;;;;4.40;2.55;;;18.10;74.20;;;;;;4958856;28;20046;-82
2021/05/26 11:31:06;;;;;;;5.97;1.95;;;17.90;74.40;;;;;;4974575;28;20142;-80
2021/05/26 11:33:32;;;;;;;9.18;1.95;;;17.80;74.80;;;;;;4974617;28;20035;-79
2021/05/26 11:36:04;;;;;;;5.32;1.95;;;17.90;74.60;;;;;;4975692;28;20094;-80
2021/05/26 11:38:31;;;;;;;11.38;1.90;;;18.00;73.50;;;;;;4957375;28;20034;-79
2021/05/26 11:40:58;;;;;;;5.27;2.17;;;17.60;71.70;;;;;;4958256;28;20034;-86
2021/05/26 11:43:24;;;;;;;5.70;1.75;;;17.90;72.30;;;;;;4975542;28;20602;-87
2021/05/26 11:46:07;;;;;;;4.88;1.50;;;17.90;71.60;;;;;;4978346;28;20035;-86
2021/05/26 11:48:33;;;;;;;12.32;2.20;;;18.00;72.00;;;;;;4976795;28;20499;-87
2021/05/26 11:51:00;;;;;;;5.15;2.38;;;17.80;71.80;;;;;;4978339;28;20035;-88
2021/05/26 11:53:28;;;;;;;9.00;2.35;;;17.60;71.80;;;;;;4977361;28;20035;-89
2021/05/26 11:56:01;;;;;;;3.10;1.40;;;17.80;71.70;;;;;;4976143;28;20145;-87
2021/05/26 11:58:40;;;;;;;5.18;1.58;;;17.70;71.50;;;;;;4975207;28;20117;-83
2021/05/26 12:01:12;;;;;;;3.85;1.58;;;17.70;72.20;;;;;;4958011;28;20034;-84
2021/05/26 12:03:38;;;;;;;3.30;1.40;;;17.60;72.00;;;;;;4957738;28;20456;-82
2021/05/26 12:06:04;;;;;;;6.97;1.50;;;17.70;72.60;;;;;;4977434;28;20035;-81
2021/05/26 12:08:33;;;;;;;5.55;1.38;;;17.80;72.50;;;;;;4975179;28;20054;-81
2021/05/26 12:11:07;;;;;;;2.63;1.20;;;17.90;72.60;;;;;;4956588;28;20049;-81
2021/05/26 12:13:39;;;;;;;3.88;1.10;;;18.10;71.90;;;;;;4974785;28;20292;-80
2021/05/26 12:16:31;;;;;;;4.32;1.65;;;18.30;71.60;;;;;;4975057;28;20052;-82
2021/05/26 12:19:00;;;;;;;3.15;1.35;;;17.90;70.20;;;;;;4953626;28;20050;-80
2021/05/26 12:21:28;;;;;;;2.67;0.80;;;18.10;71.40;;;;;;4974380;28;20026;-79
2021/05/26 12:24:00;;;;;;;;;;;18.20;70.90;;;;;;4976465;28;20357;-81
2021/05/26 12:26:27;;;;;;;8.20;1.25;;;18.00;69.40;;;;;;4975222;28;19918;-84
2021/05/26 12:28:55;;;;;;;3.58;1.35;;;17.90;69.40;;;;;;4957140;28;20038;-86
2021/05/26 12:31:22;;;;;;;3.13;1.08;;;17.80;70.00;;;;;;4975143;28;20035;-84
2021/05/26 12:33:52;;;;;;;2.95;1.27;;;17.90;70.20;;;;;;4973947;28;20031;-81
2021/05/26 12:36:24;;;;;;;5.15;1.10;;;17.90;69.30;;;;;;4974140;28;20034;-83
2021/05/26 12:39:01;;;;;;;5.47;1.20;;;17.90;69.00;;;;;;4958884;28;20022;-85
2021/05/26 12:41:37;;;;;;;5.13;1.20;;;18.10;68.80;;;;;;4957585;28;20038;-83
2021/05/26 12:44:06;;;;;;;3.03;0.82;;;18.20;69.30;;;;;;4973798;28;20046;-86
2021/05/26 12:46:34;;;;;;;2.60;0.90;;;18.00;67.70;;;;;;4956792;28;20061;-84
2021/05/26 12:48:59;;;;;;;4.00;1.00;;;18.10;68.90;;;;;;4973825;28;20370;-80